createdAt,value
2023-02-27T00:00:56.893Z,86
2023-02-27T00:05:56.125Z,86
2023-02-27T00:10:56.454Z,86
2023-02-27T00:15:56.872Z,86
2023-02-27T00:20:56.778Z,86
2023-02-27T00:25:56.186Z,86
2023-02-27T00:30:56.518Z,86
2023-02-27T00:35:56.772Z,86
2023-02-27T00:40:56.736Z,86
2023-02-27T00:45:56.954Z,86
2023-02-27T00:50:56.531Z,86
2023-02-27T00:55:56.767Z,86
2023-02-27T01:00:56.203Z,86
2023-02-27T01:05:56.436Z,86
2023-02-27T01:10:56.924Z,86
2023-02-27T01:15:56.407Z,87
2023-02-27T01:20:56.815Z,87
2023-02-27T01:25:56.118Z,86
2023-02-27T01:30:56.625Z,86
2023-02-27T01:35:57.025Z,86
2023-02-27T01:40:56.379Z,86
2023-02-27T01:45:56.788Z,87
2023-02-27T01:50:56.200Z,87
2023-02-27T01:55:56.461Z,87
2023-02-27T02:00:56.849Z,87
2023-02-27T02:05:57.093Z,87
2023-02-27T02:10:56.477Z,87
2023-02-27T02:15:56.948Z,87
2023-02-27T02:20:56.320Z,87
2023-02-27T02:25:56.554Z,87
2023-02-27T02:30:57.060Z,87
2023-02-27T02:35:56.362Z,87
2023-02-27T02:40:56.626Z,87
2023-02-27T02:45:56.853Z,87
2023-02-27T02:50:57.158Z,87
2023-02-27T02:55:56.735Z,87
2023-02-27T03:00:57.143Z,87
2023-02-27T03:05:56.602Z,87
2023-02-27T03:10:56.902Z,87
2023-02-27T03:15:56.541Z,87
2023-02-27T03:20:56.370Z,87
2023-02-27T03:25:59.333Z,87
2023-02-27T03:30:57.032Z,87
2023-02-27T03:35:56.850Z,87
2023-02-27T03:40:56.988Z,87
2023-02-27T03:45:56.339Z,87
2023-02-27T03:50:57.025Z,87
2023-02-27T03:55:56.337Z,88
2023-02-27T04:00:56.499Z,88
2023-02-27T04:05:56.658Z,88
2023-02-27T04:10:56.632Z,88
2023-02-27T04:15:56.460Z,88
2023-02-27T04:20:56.914Z,88
2023-02-27T04:25:56.307Z,88
2023-02-27T04:30:56.975Z,88
2023-02-27T04:35:57.010Z,88
2023-02-27T04:40:56.347Z,88
2023-02-27T04:45:56.582Z,88
2023-02-27T04:50:56.868Z,88
2023-02-27T04:55:57.030Z,88
2023-02-27T05:00:56.300Z,88
2023-02-27T05:05:56.430Z,88
2023-02-27T05:10:56.813Z,88
2023-02-27T05:15:57.228Z,88
2023-02-27T05:20:56.580Z,88
2023-02-27T05:25:56.960Z,88
2023-02-27T05:30:56.427Z,88
2023-02-27T05:35:56.724Z,88
2023-02-27T05:40:56.683Z,88
2023-02-27T05:45:56.849Z,89
2023-02-27T05:50:57.114Z,89
2023-02-27T05:55:56.317Z,89
2023-02-27T06:00:57.031Z,89
2023-02-27T06:05:56.288Z,89
2023-02-27T06:10:56.719Z,89
2023-02-27T06:15:56.776Z,89
2023-02-27T06:20:56.971Z,89
2023-02-27T06:25:57.080Z,89
2023-02-27T06:30:56.448Z,89
2023-02-27T06:35:56.935Z,89
2023-02-27T06:40:57.142Z,89
2023-02-27T06:45:56.732Z,89
2023-02-27T06:50:57.028Z,89
2023-02-27T06:55:57.193Z,89
2023-02-27T07:00:56.416Z,89
2023-02-27T07:05:56.664Z,89
2023-02-27T07:10:56.952Z,89
2023-02-27T07:15:57.213Z,90
2023-02-27T07:20:57.208Z,90
2023-02-27T07:25:57.195Z,90
2023-02-27T07:30:56.813Z,90
2023-02-27T07:35:57.500Z,90
2023-02-27T07:40:56.951Z,90
2023-02-27T07:45:56.249Z,90
2023-02-27T07:50:56.910Z,90
2023-02-27T07:55:57.219Z,91
2023-02-27T08:00:56.909Z,91
2023-02-27T08:05:57.231Z,90
2023-02-27T08:10:56.796Z,90
2023-02-27T08:15:57.067Z,90
2023-02-27T08:20:56.399Z,90
2023-02-27T08:25:56.552Z,89
2023-02-27T08:30:57.315Z,89
2023-02-27T08:35:56.521Z,89
2023-02-27T08:40:56.883Z,89
2023-02-27T08:45:56.496Z,88
2023-02-27T08:50:58.195Z,88
2023-02-27T08:55:56.401Z,87
2023-02-27T09:00:56.769Z,87
2023-02-27T09:05:57.277Z,86
2023-02-27T09:10:56.654Z,86
2023-02-27T09:15:56.884Z,86
2023-02-27T09:20:57.203Z,86
2023-02-27T09:25:56.354Z,84
2023-02-27T09:30:57.269Z,84
2023-02-27T09:35:57.018Z,83
2023-02-27T09:40:56.670Z,83
2023-02-27T09:45:57.084Z,81
2023-02-27T09:50:56.947Z,81
2023-02-27T09:55:56.301Z,76
2023-02-27T10:00:56.541Z,76
2023-02-27T10:05:56.325Z,72
2023-02-27T10:10:57.353Z,72
2023-02-27T10:15:56.799Z,69
2023-02-27T10:20:57.375Z,69
2023-02-27T10:25:56.731Z,66
2023-02-27T10:30:57.056Z,66
2023-02-27T10:35:57.478Z,67
2023-02-27T10:40:58.097Z,67
2023-02-27T10:45:56.524Z,67
2023-02-27T10:50:56.802Z,67
2023-02-27T10:55:57.040Z,68
2023-02-27T11:00:56.462Z,68
2023-02-27T11:05:56.981Z,66
2023-02-27T11:10:57.385Z,66
2023-02-27T11:15:56.748Z,67
2023-02-27T11:20:57.007Z,67
2023-02-27T11:25:57.213Z,67
2023-02-27T11:30:56.618Z,67
2023-02-27T11:35:58.804Z,67
2023-02-27T11:40:57.279Z,67
2023-02-27T11:46:46.288Z,68
2023-02-27T11:50:56.556Z,68
2023-02-27T11:55:56.865Z,69
2023-02-27T12:00:57.188Z,69
2023-02-27T12:05:56.609Z,70
2023-02-27T12:11:14.799Z,70
2023-02-27T12:15:57.160Z,67
2023-02-27T12:20:57.395Z,67
2023-02-27T12:25:56.696Z,66
2023-02-27T12:30:56.888Z,66
2023-02-27T12:35:57.482Z,66
2023-02-27T12:40:56.766Z,66
2023-02-27T12:45:57.570Z,66
2023-02-27T12:50:56.910Z,66
2023-02-27T12:55:56.739Z,65
2023-02-27T13:00:57.175Z,65
2023-02-27T13:05:57.296Z,63
2023-02-27T13:10:57.487Z,63
2023-02-27T13:15:56.969Z,59
2023-02-27T13:20:57.340Z,59
2023-02-27T13:25:56.550Z,60
2023-02-27T13:30:56.825Z,60
2023-02-27T13:35:57.169Z,58
2023-02-27T13:40:57.436Z,58
2023-02-27T13:45:56.990Z,59
2023-02-27T13:50:57.273Z,59
2023-02-27T13:55:57.409Z,57
2023-02-27T14:00:56.710Z,57
2023-02-27T14:05:57.219Z,56
2023-02-27T14:10:57.414Z,56
2023-02-27T14:15:56.656Z,58
2023-02-27T14:20:56.935Z,58
2023-02-27T14:25:56.733Z,60
2023-02-27T14:30:57.516Z,60
2023-02-27T14:35:56.713Z,58
2023-02-27T14:40:57.175Z,58
2023-02-27T14:45:57.562Z,62
2023-02-27T14:50:57.223Z,62
2023-02-27T14:55:56.619Z,61
2023-02-27T15:00:56.891Z,61
2023-02-27T15:05:56.685Z,61
2023-02-27T15:10:57.214Z,61
2023-02-27T15:16:14.932Z,62
2023-02-27T15:20:56.553Z,62
2023-02-27T15:25:57.213Z,63
2023-02-27T15:30:57.323Z,63
2023-02-27T15:35:57.387Z,63
2023-02-27T15:40:57.157Z,63
2023-02-27T15:45:56.698Z,64
2023-02-27T15:50:57.267Z,64
2023-02-27T15:55:57.256Z,66
2023-02-27T16:00:57.122Z,66
2023-02-27T16:05:57.519Z,67
2023-02-27T16:10:57.130Z,67
2023-02-27T16:15:57.272Z,70
2023-02-27T16:20:56.835Z,70
2023-02-27T16:25:57.097Z,71
2023-02-27T16:30:57.353Z,71
2023-02-27T16:35:56.864Z,72
2023-02-27T16:40:57.554Z,72
2023-02-27T16:45:56.899Z,72
2023-02-27T16:50:57.368Z,72
2023-02-27T16:55:56.687Z,73
2023-02-27T17:00:57.111Z,73
2023-02-27T17:05:57.442Z,75
2023-02-27T17:10:56.734Z,75
2023-02-27T17:15:56.867Z,76
2023-02-27T17:20:57.147Z,76
2023-02-27T17:25:57.420Z,75
2023-02-27T17:30:57.704Z,75
2023-02-27T17:35:57.133Z,76
2023-02-27T17:40:56.876Z,76
2023-02-27T17:45:57.162Z,76
2023-02-27T17:50:57.486Z,76
2023-02-27T17:55:56.830Z,76
2023-02-27T18:00:57.057Z,76
2023-02-27T18:05:57.398Z,77
2023-02-27T18:10:56.726Z,77
2023-02-27T18:15:57.110Z,77
2023-02-27T18:20:57.345Z,77
2023-02-27T18:25:57.587Z,77
2023-02-27T18:30:56.830Z,77
2023-02-27T18:35:57.413Z,77
2023-02-27T18:40:56.883Z,77
2023-02-27T18:45:57.283Z,77
2023-02-27T18:50:57.627Z,77
2023-02-27T18:55:56.927Z,77
2023-02-27T20:25:57.181Z,75
2023-02-27T20:30:57.541Z,75
2023-02-27T20:35:56.967Z,76
2023-02-27T20:40:57.124Z,76
2023-02-27T20:45:57.429Z,77
2023-02-27T20:50:56.758Z,77
2023-02-27T20:55:57.040Z,77
2023-02-27T21:00:57.393Z,77
2023-02-27T21:05:57.613Z,76
2023-02-27T21:10:57.806Z,76
2023-02-27T21:15:57.264Z,76
2023-02-27T21:20:56.795Z,76
2023-02-27T21:25:57.565Z,76
2023-02-27T21:30:56.855Z,76
2023-02-27T21:35:57.020Z,76
2023-02-27T21:40:56.920Z,76
2023-02-27T21:45:57.451Z,76
2023-02-27T21:50:56.918Z,76
2023-02-27T21:55:57.237Z,76
2023-02-27T22:00:56.912Z,76
2023-02-27T22:05:57.174Z,77
2023-02-27T22:10:57.578Z,77
2023-02-27T22:15:57.141Z,77
2023-02-27T22:20:57.427Z,77
2023-02-27T22:25:57.705Z,78
2023-02-27T22:30:56.946Z,78
2023-02-27T22:35:57.187Z,78
2023-02-27T22:40:57.391Z,78
2023-02-27T22:45:57.587Z,78
2023-02-27T22:50:57.795Z,78
2023-02-27T22:55:57.251Z,78
2023-02-27T23:00:57.496Z,78
2023-02-27T23:05:57.955Z,77
2023-02-27T23:10:57.558Z,77
2023-02-27T23:15:57.200Z,76
2023-02-27T23:20:57.647Z,76
2023-02-27T23:25:57.172Z,76
2023-02-27T23:30:57.457Z,76
2023-02-27T23:35:57.821Z,75
2023-02-27T23:40:57.418Z,75
2023-02-27T23:45:57.793Z,74
2023-02-27T23:55:59.166Z,72
